Scroll down
FLIGHT INFORMATION
Southern Air

SOO96

At Arrival Gate

RKSI
 KLAX
DATE: 2022-06-24
GATE: 27
GATE DEPARTURE: 22:29
TAKEOFF: 22:30
DATE: 2022-06-25
GATE:  -
LANDING: 09:19
GATE ARRIVAL: 09:24
FLIGHT DATA
Crew: 
Speed: 
514 kts
Altitude: 
37,169 ft
Stage Length: 
5,198.0 nm
Block Time: 
10.9 hrs
Flight Time: 
10.8 hrs
Fuel Used: 
181,969 lb
Cleared Route: RKSI EGOBA KARBU TORUS BIKSI KAE PILIT NIMUS AGSUS LANAT DISSH SAMON KMC DAIGO BEKPO PABBA DOVIX ADNAP KALNA 41E60 42E70 44E80 46N70 46N60 43N50 41N40 39N30 DACEM PAINT PIRAT BURGL KLAX
TRACK DATA
50,000 ft 1,000 kts
AIRCRAFT INFO AND CUMULATIVE STATS
Aircraft Type: 
B77LF
Registration: 
SELCAL: 
PRDS
MSN/LN: 
37988 / 1002
Operator: 
Total Flights: 
6
Total Block Time: 
41 hrs
Total Flight Time: 
39.6 hrs
Total Fuel Used: 
466,178 lb
DATALINK LOG | Newest first | Current as of: 2022-08-16 06:59:58
LABEL SEQUENCE CONTENT Dn/Up
QD402209:24 23.6▼ Dn
QC351709:19▼ Dn
UM2123132KLAX ATIS - LAX ATIS INFO F 2353Z. 25016KT 10SM FEW005 22/16 A2984 (TWO NINER EIGHT FOUR) RMK AO2 SLP105 10222 20200 58013. INST APCHS AND RNAV RNP APCHS ILS RY 24R, RNAV GPS Y RY 25L, OR VCTR FOR VISUAL APCH WILL BE PROVIDED, SIMUL VISUAL APCHS TO ALL RWYS ARE IN PROG, SIMUL INSTR DEPARTURES IN PROG RWYS 24 AND 25. CTC L A GC ON 121.75 FOR PUSH OR TAXI ON A. NOTICE TO AIR MISSIONS. TWY C CLSD BTN TWY, N AND TWY C12 TWY B13 CLSD BTN TWY B AND TWY C TWY C9 CLSD BTN TWY B AND TWY C, TWY C CLSD BTWN GATE 59 AND TWY C9. ILS RY 25L OTS, RWY 7L GS OTS, RY 25R MALSR OTS, PAPI OTS 24L, ILS 25L DME OTS, FREQ 120.95 OTS. CATEGORY 2 AND 3 APCHS TO RUNWAY 2 5 LEFT NOT AUTHORIZED. 5G NOTAMS IN EFFECT. SOUTH COMPLEX TOWER FREQUENCY IS 119.8. HELICOPTER FREQUENCY IS 133.9. HAZD WX INFO FOR LAX AREA AVBL FM FSS. USE CAUTION FOR HANG GLIDING 1 MILE SOUTH LOS ANGELES VOR. BIRD ACTIVITY VICINITY ARPT. INCLUDE YOUR CALL SIGN IN ALL READBACKS. ...ADVS YOU HAVE INFO F.▲ Up
DM793122 ATIS KLAX A▼ Dn
UM201454CLIMB TO 330▲ Up
DM67H1444WHEN CAN WE EXPECT CLIMB TO FL 330▼ Dn
UM0 UM191423UNABLE. MAINTAIN ASSIGNED ALTITUDE▲ Up
DM61413REQUEST FL 330 DUE TO A/C PERF▼ Dn
QB064522:30▼ Dn
QA054422:29 205.5▼ Dn
2U5834RKSI 242030Z 20010KT 3000 BR BKN010 21/20 Q1002 NOSIG▲ Up
2U5833KONT 242053Z 27012G16KT 10SM CLR 36/08 A2986 RMK AO2 SLP090 T03610078 58011▲ Up
2U5833KOAK 242053Z 31015KT 10SM FEW008 21/13 A2987 RMK AO2 SLP116 T02110128 58004▲ Up
2U5832KLAX 242053Z 27014KT 8SM SCT005 21/15 A2988 RMK AO2 SLP118 T02110150 58005▲ Up
2S5832RKSI KLAX KONT KOAK▼ Dn
A35831CLEARED TO KLAX VIA EGOBA Y697 BIKSI Y697 LANAT Y51 SAMON Y513 KMC DAIGO Y886 ADNAP OTR5 KALNA 4100N/16000E 4200N/17000E 4400N/18000E 4600N/17000W 4600N/16000W 4300N/15000W 4100N/14000W 3900N/13000W DACEM PAINT PIRAT BURGL IRNMN2. SQUAWK 5764.▲ Up
B35831RKSI KLAX PAC96 N714SA ▼ Dn
Q05730[LINK ACK]▲ Up
Q05730[LINK TEST]▼ Dn
DM48060944E80 03:40z FL349 46N70 04:29z 46N60 M0.83 109.0 -50 222/87 RW25L 09:26z▼ Dn
UM202542CLEARED TO FL 350▲ Up
DM62532REQUEST FL 350 DUE TO A/C PERF▼ Dn
QB073522:42▼ Dn
QA532122:28 205.8▼ Dn
2U3508KONT 241153Z 00000KT 10SM CLR 20/07 A2988 RMK AO2 SLP099 T02000072 10244 20200 56003▲ Up
2U3507KLAX 241153Z 25004KT 5SM BR FEW005 SCT008 17/15 A2988 RMK AO2 SLP114 T01670150 10178 20167 55003▲ Up
2U3507RKSI 241230Z 21008KT 4000 BR SCT009 BKN030 21/20 Q1001 NOSIG▲ Up
2S3507RKSI KLAX KONT▼ Dn
A33506CLEARED TO KLAX VIA EGOBA Y697 BIKSI Y697 LANAT Y51 SAMON Y513 KMC DAIGO Y886 ADNAP OTR5 KALNA 4100N/16000E 4200N/17000E 4400N/18000E 4600N/17000W 4600N/16000W 4300N/15000W 4100N/14000W 3900N/13000W DACEM PAINT PIRAT BURGL IRNMN2. SQUAWK 5623.▲ Up
B33503RKSI KLAX PAC96 N714SA ▼ Dn
Q03301[LINK ACK]▲ Up
Q03301[LINK TEST]▼ Dn


AIRCRAFT HISTORY
FLIGHT DATE FLIGHT NO. ORIGIN DESTINATION CLEARED ROUTE BLOCK TIME FLIGHT TIME FUEL USED PILOT
2022-06-25SOO423KLAX EDDP KLAX BEALE BLIPP WINEN MLF MTU OCS CZI BIS HML YRL 5390N GW 5670N YDP AVUTI 5850N 5940N 5930N 5820N PIKIL MOGLO NIBOG BELZU REMSI BELOX TENSO DESIG ELNOD MAMUL EDUXO LAMIX EVKAL ROGAG AMVEL DOLAS ENITO DIBAL BUKUT LAMSO AMSAN NORTA ADMOS KENIG KOJEC EDDP10.5 hrs10.4 hrs187,515 lbAllan Burek
2022-06-24SOO96RKSI KLAX RKSI EGOBA KARBU TORUS BIKSI KAE PILIT NIMUS AGSUS LANAT DISSH SAMON KMC DAIGO BEKPO PABBA DOVIX ADNAP KALNA 41E60 42E70 44E80 46N70 46N60 43N50 41N40 39N30 DACEM PAINT PIRAT BURGL KLAX10.9 hrs10.8 hrs181,969 lbAllan Burek
2021-09-30SSO221KLAX RKSI HIIPR EVOSE MKGEE DARRK SUMMR OLOFF RIZIN TESEA SCTRR PYE NIECE OED HQM WAPTO TOU FINGS JOWEN LOHNE ARCAL 59N60 PUGGY CREMR EXAMY 50E70 CUTEE KALIG KALNA NODAN LIDEL 00ZYT SKIPE HAIJI TAXUK 37E36 SAMON SUGNO SAPRA BULGA KPO ELAPI CUN BIGOB BASEM ENSAL GUKDO13.1 hrs12.7 hrs0 lbAlex K.
2021-07-18SOO9714KDEN KLAX KDEN TEHRU JASSE AREAF ESGEE DNERO KLAX2.1 hrs1.8 hrs26,644 lbAllan Burek
2021-03-08SOO308KMSY KDEN KMSY AEX EIC DECOD PLATE ATOKA IRW MMB HALEN KDEN2.6 hrs2.3 hrs40,794 lbAaron Buchanan
2021-03-01SOO301KMIA KMSY KMIA WINCO CHRRI DOLIE SRQ JONBU CHRGE REMIS ROZZI NAITE REDFN FATSO HRV KMSY1.8 hrs1.6 hrs29,256 lbAaron Buchanan